sensor_id;sensor_type;location;lat;lon;timestamp;P1;durP1;ratioP1;P2;durP2;ratioP2
14165;SDS011;7162;52.422;13.754;2023-04-24T00:00:54;3.30;;;2.97;;
14165;SDS011;7162;52.422;13.754;2023-04-24T00:03:22;3.40;;;3.07;;
14165;SDS011;7162;52.422;13.754;2023-04-24T00:05:49;2.97;;;2.67;;
14165;SDS011;7162;52.422;13.754;2023-04-24T00:08:17;4.20;;;3.37;;
14165;SDS011;7162;52.422;13.754;2023-04-24T00:10:45;3.10;;;2.80;;
14165;SDS011;7162;52.422;13.754;2023-04-24T00:13:12;5.90;;;3.30;;
14165;SDS011;7162;52.422;13.754;2023-04-24T00:15:39;3.67;;;3.20;;
14165;SDS011;7162;52.422;13.754;2023-04-24T00:18:06;7.07;;;3.63;;
14165;SDS011;7162;52.422;13.754;2023-04-24T00:20:33;3.13;;;2.83;;
14165;SDS011;7162;52.422;13.754;2023-04-24T00:23:01;3.20;;;2.87;;
14165;SDS011;7162;52.422;13.754;2023-04-24T00:25:28;3.50;;;3.20;;
14165;SDS011;7162;52.422;13.754;2023-04-24T00:27:56;4.20;;;3.30;;
14165;SDS011;7162;52.422;13.754;2023-04-24T00:30:23;4.63;;;3.40;;
14165;SDS011;7162;52.422;13.754;2023-04-24T00:32:50;4.60;;;2.97;;
14165;SDS011;7162;52.422;13.754;2023-04-24T00:35:17;3.30;;;2.97;;
14165;SDS011;7162;52.422;13.754;2023-04-24T00:37:45;4.10;;;3.63;;
14165;SDS011;7162;52.422;13.754;2023-04-24T00:40:12;4.97;;;3.53;;
14165;SDS011;7162;52.422;13.754;2023-04-24T00:42:39;3.80;;;3.30;;
14165;SDS011;7162;52.422;13.754;2023-04-24T00:45:08;3.03;;;2.80;;
14165;SDS011;7162;52.422;13.754;2023-04-24T00:47:35;3.40;;;3.03;;
14165;SDS011;7162;52.422;13.754;2023-04-24T00:50:03;5.00;;;3.60;;
14165;SDS011;7162;52.422;13.754;2023-04-24T00:52:31;6.50;;;3.67;;
14165;SDS011;7162;52.422;13.754;2023-04-24T00:54:58;4.77;;;3.03;;
14165;SDS011;7162;52.422;13.754;2023-04-24T00:57:25;5.73;;;3.50;;
14165;SDS011;7162;52.422;13.754;2023-04-24T00:59:52;4.33;;;3.57;;
14165;SDS011;7162;52.422;13.754;2023-04-24T01:02:22;3.90;;;3.50;;
14165;SDS011;7162;52.422;13.754;2023-04-24T01:04:49;6.27;;;3.73;;
14165;SDS011;7162;52.422;13.754;2023-04-24T01:07:17;4.33;;;3.50;;
14165;SDS011;7162;52.422;13.754;2023-04-24T01:09:45;6.43;;;3.47;;
14165;SDS011;7162;52.422;13.754;2023-04-24T01:12:16;3.20;;;2.90;;
14165;SDS011;7162;52.422;13.754;2023-04-24T01:14:43;5.60;;;3.43;;
14165;SDS011;7162;52.422;13.754;2023-04-24T01:17:10;6.03;;;3.13;;
14165;SDS011;7162;52.422;13.754;2023-04-24T01:19:38;4.03;;;3.30;;
14165;SDS011;7162;52.422;13.754;2023-04-24T01:22:11;3.70;;;3.33;;
14165;SDS011;7162;52.422;13.754;2023-04-24T01:24:38;3.63;;;3.13;;
14165;SDS011;7162;52.422;13.754;2023-04-24T01:27:05;17.80;;;3.97;;
14165;SDS011;7162;52.422;13.754;2023-04-24T01:29:32;6.20;;;3.90;;
14165;SDS011;7162;52.422;13.754;2023-04-24T01:31:59;4.87;;;3.83;;
14165;SDS011;7162;52.422;13.754;2023-04-24T01:34:26;4.20;;;3.60;;
14165;SDS011;7162;52.422;13.754;2023-04-24T01:36:53;4.80;;;3.63;;
14165;SDS011;7162;52.422;13.754;2023-04-24T01:39:22;6.13;;;3.90;;
14165;SDS011;7162;52.422;13.754;2023-04-24T01:41:50;4.70;;;3.63;;
14165;SDS011;7162;52.422;13.754;2023-04-24T01:44:17;5.43;;;3.80;;
14165;SDS011;7162;52.422;13.754;2023-04-24T01:46:44;7.30;;;3.80;;
14165;SDS011;7162;52.422;13.754;2023-04-24T01:49:11;4.70;;;3.83;;
14165;SDS011;7162;52.422;13.754;2023-04-24T01:51:38;4.50;;;3.80;;
14165;SDS011;7162;52.422;13.754;2023-04-24T01:54:05;7.20;;;4.03;;
14165;SDS011;7162;52.422;13.754;2023-04-24T01:56:34;5.63;;;3.77;;
14165;SDS011;7162;52.422;13.754;2023-04-24T01:59:01;12.00;;;4.10;;
14165;SDS011;7162;52.422;13.754;2023-04-24T02:01:32;5.03;;;3.57;;
14165;SDS011;7162;52.422;13.754;2023-04-24T02:04:01;4.20;;;3.80;;
14165;SDS011;7162;52.422;13.754;2023-04-24T02:06:28;4.60;;;3.70;;
14165;SDS011;7162;52.422;13.754;2023-04-24T02:08:56;6.07;;;3.60;;
14165;SDS011;7162;52.422;13.754;2023-04-24T02:11:23;4.57;;;3.70;;
14165;SDS011;7162;52.422;13.754;2023-04-24T02:13:51;7.07;;;3.70;;
14165;SDS011;7162;52.422;13.754;2023-04-24T02:16:18;4.30;;;3.70;;
14165;SDS011;7162;52.422;13.754;2023-04-24T02:18:45;4.80;;;3.80;;
14165;SDS011;7162;52.422;13.754;2023-04-24T02:21:12;4.37;;;3.60;;
14165;SDS011;7162;52.422;13.754;2023-04-24T02:23:39;10.03;;;4.13;;
14165;SDS011;7162;52.422;13.754;2023-04-24T02:26:06;5.07;;;4.10;;
14165;SDS011;7162;52.422;13.754;2023-04-24T02:28:33;4.80;;;3.93;;
14165;SDS011;7162;52.422;13.754;2023-04-24T02:31:02;5.47;;;4.13;;
14165;SDS011;7162;52.422;13.754;2023-04-24T02:33:29;6.53;;;4.10;;
14165;SDS011;7162;52.422;13.754;2023-04-24T02:35:55;4.63;;;3.70;;
14165;SDS011;7162;52.422;13.754;2023-04-24T02:38:22;5.60;;;3.80;;
14165;SDS011;7162;52.422;13.754;2023-04-24T02:40:49;6.23;;;4.13;;
14165;SDS011;7162;52.422;13.754;2023-04-24T02:43:17;5.10;;;4.30;;
14165;SDS011;7162;52.422;13.754;2023-04-24T02:45:44;5.00;;;3.93;;
14165;SDS011;7162;52.422;13.754;2023-04-24T02:48:12;5.33;;;3.77;;
14165;SDS011;7162;52.422;13.754;2023-04-24T02:50:39;6.20;;;4.30;;
14165;SDS011;7162;52.422;13.754;2023-04-24T02:53:06;4.20;;;3.80;;
14165;SDS011;7162;52.422;13.754;2023-04-24T02:55:33;4.67;;;4.10;;
14165;SDS011;7162;52.422;13.754;2023-04-24T02:58:00;11.83;;;3.90;;
14165;SDS011;7162;52.422;13.754;2023-04-24T03:00:27;6.60;;;4.20;;
14165;SDS011;7162;52.422;13.754;2023-04-24T03:02:54;4.73;;;4.00;;
14165;SDS011;7162;52.422;13.754;2023-04-24T03:05:23;4.00;;;3.50;;
14165;SDS011;7162;52.422;13.754;2023-04-24T03:07:50;5.73;;;4.07;;
14165;SDS011;7162;52.422;13.754;2023-04-24T03:10:18;6.13;;;4.47;;
14165;SDS011;7162;52.422;13.754;2023-04-24T03:12:45;4.27;;;3.70;;
14165;SDS011;7162;52.422;13.754;2023-04-24T03:15:12;14.43;;;4.40;;
14165;SDS011;7162;52.422;13.754;2023-04-24T03:17:39;6.43;;;5.13;;
14165;SDS011;7162;52.422;13.754;2023-04-24T03:20:06;6.47;;;4.60;;
14165;SDS011;7162;52.422;13.754;2023-04-24T03:22:35;10.33;;;6.63;;
14165;SDS011;7162;52.422;13.754;2023-04-24T03:25:02;7.67;;;5.00;;
14165;SDS011;7162;52.422;13.754;2023-04-24T03:27:29;5.20;;;3.73;;
14165;SDS011;7162;52.422;13.754;2023-04-24T03:29:56;4.70;;;4.20;;
14165;SDS011;7162;52.422;13.754;2023-04-24T03:32:23;4.93;;;3.93;;
14165;SDS011;7162;52.422;13.754;2023-04-24T03:34:50;4.87;;;3.80;;
14165;SDS011;7162;52.422;13.754;2023-04-24T03:37:18;5.00;;;3.93;;
14165;SDS011;7162;52.422;13.754;2023-04-24T03:39:46;5.27;;;3.77;;
14165;SDS011;7162;52.422;13.754;2023-04-24T03:42:13;5.93;;;3.80;;
14165;SDS011;7162;52.422;13.754;2023-04-24T03:44:40;5.67;;;4.03;;
14165;SDS011;7162;52.422;13.754;2023-04-24T03:47:07;4.80;;;4.27;;
14165;SDS011;7162;52.422;13.754;2023-04-24T03:49:34;6.10;;;4.83;;
14165;SDS011;7162;52.422;13.754;2023-04-24T03:52:01;6.23;;;4.47;;
14165;SDS011;7162;52.422;13.754;2023-04-24T03:54:28;5.63;;;4.60;;
14165;SDS011;7162;52.422;13.754;2023-04-24T03:56:56;5.23;;;4.20;;
14165;SDS011;7162;52.422;13.754;2023-04-24T03:59:23;6.30;;;4.27;;
14165;SDS011;7162;52.422;13.754;2023-04-24T04:01:50;6.30;;;4.37;;
14165;SDS011;7162;52.422;13.754;2023-04-24T04:04:17;9.00;;;4.80;;
14165;SDS011;7162;52.422;13.754;2023-04-24T04:06:44;10.13;;;6.10;;
14165;SDS011;7162;52.422;13.754;2023-04-24T04:09:11;8.53;;;5.20;;
14165;SDS011;7162;52.422;13.754;2023-04-24T04:11:38;5.10;;;4.10;;
14165;SDS011;7162;52.422;13.754;2023-04-24T04:14:07;4.80;;;4.03;;
14165;SDS011;7162;52.422;13.754;2023-04-24T04:16:34;7.63;;;4.77;;
14165;SDS011;7162;52.422;13.754;2023-04-24T04:19:02;4.97;;;3.73;;
14165;SDS011;7162;52.422;13.754;2023-04-24T04:21:29;8.17;;;4.27;;
14165;SDS011;7162;52.422;13.754;2023-04-24T04:23:57;7.67;;;4.93;;
14165;SDS011;7162;52.422;13.754;2023-04-24T04:26:24;6.73;;;4.93;;
14165;SDS011;7162;52.422;13.754;2023-04-24T04:28:52;7.70;;;4.40;;
14165;SDS011;7162;52.422;13.754;2023-04-24T04:31:20;10.17;;;4.43;;
14165;SDS011;7162;52.422;13.754;2023-04-24T04:33:48;6.00;;;4.37;;
14165;SDS011;7162;52.422;13.754;2023-04-24T04:36:15;5.43;;;4.03;;
14165;SDS011;7162;52.422;13.754;2023-04-24T04:38:42;5.80;;;4.13;;
14165;SDS011;7162;52.422;13.754;2023-04-24T04:41:09;5.80;;;3.90;;
14165;SDS011;7162;52.422;13.754;2023-04-24T04:43:36;4.60;;;4.20;;
14165;SDS011;7162;52.422;13.754;2023-04-24T04:46:04;4.67;;;4.00;;
14165;SDS011;7162;52.422;13.754;2023-04-24T04:48:34;5.70;;;4.33;;
14165;SDS011;7162;52.422;13.754;2023-04-24T04:51:01;5.30;;;4.20;;
14165;SDS011;7162;52.422;13.754;2023-04-24T04:53:28;5.83;;;4.57;;
14165;SDS011;7162;52.422;13.754;2023-04-24T04:55:56;9.77;;;4.23;;
14165;SDS011;7162;52.422;13.754;2023-04-24T04:58:23;7.00;;;5.10;;
14165;SDS011;7162;52.422;13.754;2023-04-24T05:00:50;10.17;;;5.07;;
14165;SDS011;7162;52.422;13.754;2023-04-24T05:03:17;6.93;;;4.13;;
14165;SDS011;7162;52.422;13.754;2023-04-24T05:05:45;5.70;;;4.03;;
14165;SDS011;7162;52.422;13.754;2023-04-24T05:08:12;4.60;;;3.90;;
14165;SDS011;7162;52.422;13.754;2023-04-24T05:10:39;4.27;;;3.30;;
14165;SDS011;7162;52.422;13.754;2023-04-24T05:13:06;5.17;;;3.57;;
14165;SDS011;7162;52.422;13.754;2023-04-24T05:15:33;4.10;;;3.27;;
14165;SDS011;7162;52.422;13.754;2023-04-24T05:18:00;3.83;;;3.50;;
14165;SDS011;7162;52.422;13.754;2023-04-24T05:20:27;3.77;;;3.47;;
14165;SDS011;7162;52.422;13.754;2023-04-24T05:22:56;4.73;;;3.73;;
14165;SDS011;7162;52.422;13.754;2023-04-24T05:25:23;5.50;;;3.63;;
14165;SDS011;7162;52.422;13.754;2023-04-24T05:27:50;4.20;;;3.13;;
14165;SDS011;7162;52.422;13.754;2023-04-24T05:30:18;6.00;;;3.80;;
14165;SDS011;7162;52.422;13.754;2023-04-24T05:32:45;5.53;;;3.80;;
14165;SDS011;7162;52.422;13.754;2023-04-24T05:35:12;3.83;;;3.47;;
14165;SDS011;7162;52.422;13.754;2023-04-24T05:37:39;4.57;;;3.80;;
14165;SDS011;7162;52.422;13.754;2023-04-24T05:40:08;3.87;;;2.97;;
14165;SDS011;7162;52.422;13.754;2023-04-24T05:42:36;3.87;;;3.47;;
14165;SDS011;7162;52.422;13.754;2023-04-24T05:45:03;3.63;;;3.20;;
14165;SDS011;7162;52.422;13.754;2023-04-24T05:47:30;4.43;;;3.67;;
14165;SDS011;7162;52.422;13.754;2023-04-24T05:49:57;4.70;;;3.50;;
14165;SDS011;7162;52.422;13.754;2023-04-24T05:52:24;4.67;;;3.47;;
14165;SDS011;7162;52.422;13.754;2023-04-24T05:54:51;4.70;;;3.57;;
14165;SDS011;7162;52.422;13.754;2023-04-24T05:57:20;5.93;;;3.47;;
14165;SDS011;7162;52.422;13.754;2023-04-24T05:59:47;4.10;;;3.70;;
14165;SDS011;7162;52.422;13.754;2023-04-24T06:02:13;5.90;;;3.07;;
14165;SDS011;7162;52.422;13.754;2023-04-24T06:04:41;6.60;;;3.07;;
14165;SDS011;7162;52.422;13.754;2023-04-24T06:07:08;3.33;;;2.80;;
14165;SDS011;7162;52.422;13.754;2023-04-24T06:09:36;3.30;;;2.87;;
14165;SDS011;7162;52.422;13.754;2023-04-24T06:12:03;3.20;;;2.60;;
14165;SDS011;7162;52.422;13.754;2023-04-24T06:14:33;5.70;;;3.47;;
14165;SDS011;7162;52.422;13.754;2023-04-24T06:17:00;3.47;;;2.63;;
14165;SDS011;7162;52.422;13.754;2023-04-24T06:19:27;2.23;;;2.03;;
14165;SDS011;7162;52.422;13.754;2023-04-24T06:21:54;4.83;;;2.30;;
14165;SDS011;7162;52.422;13.754;2023-04-24T06:24:21;2.63;;;2.17;;
14165;SDS011;7162;52.422;13.754;2023-04-24T06:26:48;5.17;;;2.53;;
14165;SDS011;7162;52.422;13.754;2023-04-24T06:29:15;1.97;;;1.73;;
14165;SDS011;7162;52.422;13.754;2023-04-24T06:31:44;2.33;;;1.60;;
14165;SDS011;7162;52.422;13.754;2023-04-24T06:34:12;2.43;;;1.83;;
14165;SDS011;7162;52.422;13.754;2023-04-24T06:36:39;1.60;;;1.50;;
14165;SDS011;7162;52.422;13.754;2023-04-24T06:39:06;3.10;;;1.80;;
14165;SDS011;7162;52.422;13.754;2023-04-24T06:41:33;1.47;;;1.30;;
14165;SDS011;7162;52.422;13.754;2023-04-24T06:44:00;1.60;;;1.23;;
14165;SDS011;7162;52.422;13.754;2023-04-24T06:46:27;3.37;;;1.80;;
14165;SDS011;7162;52.422;13.754;2023-04-24T06:48:55;1.77;;;1.60;;
14165;SDS011;7162;52.422;13.754;2023-04-24T06:51:22;2.73;;;1.80;;
14165;SDS011;7162;52.422;13.754;2023-04-24T06:53:49;3.33;;;1.60;;
14165;SDS011;7162;52.422;13.754;2023-04-24T06:56:16;2.07;;;1.60;;
14165;SDS011;7162;52.422;13.754;2023-04-24T06:58:43;3.97;;;2.20;;
14165;SDS011;7162;52.422;13.754;2023-04-24T07:01:11;2.40;;;1.60;;
14165;SDS011;7162;52.422;13.754;2023-04-24T07:03:38;1.77;;;1.57;;
14165;SDS011;7162;52.422;13.754;2023-04-24T07:06:06;8.73;;;1.20;;
14165;SDS011;7162;52.422;13.754;2023-04-24T07:08:33;1.90;;;1.37;;
14165;SDS011;7162;52.422;13.754;2023-04-24T07:11:01;1.40;;;1.30;;
14165;SDS011;7162;52.422;13.754;2023-04-24T07:13:28;1.53;;;1.23;;
14165;SDS011;7162;52.422;13.754;2023-04-24T07:15:55;1.53;;;1.30;;
14165;SDS011;7162;52.422;13.754;2023-04-24T07:18:22;1.43;;;1.33;;
14165;SDS011;7162;52.422;13.754;2023-04-24T07:20:49;2.03;;;1.53;;
14165;SDS011;7162;52.422;13.754;2023-04-24T07:23:17;1.40;;;1.30;;
14165;SDS011;7162;52.422;13.754;2023-04-24T07:25:44;2.80;;;1.40;;
14165;SDS011;7162;52.422;13.754;2023-04-24T07:28:11;1.20;;;1.10;;
14165;SDS011;7162;52.422;13.754;2023-04-24T07:30:39;1.10;;;1.00;;
14165;SDS011;7162;52.422;13.754;2023-04-24T07:33:06;1.73;;;1.20;;
14165;SDS011;7162;52.422;13.754;2023-04-24T07:35:33;4.70;;;1.27;;
14165;SDS011;7162;52.422;13.754;2023-04-24T07:38:00;1.10;;;1.00;;
14165;SDS011;7162;52.422;13.754;2023-04-24T07:40:28;1.67;;;1.23;;
14165;SDS011;7162;52.422;13.754;2023-04-24T07:42:55;1.20;;;1.10;;
14165;SDS011;7162;52.422;13.754;2023-04-24T07:45:22;2.80;;;1.10;;
14165;SDS011;7162;52.422;13.754;2023-04-24T07:47:51;1.40;;;1.30;;
14165;SDS011;7162;52.422;13.754;2023-04-24T07:50:18;1.50;;;1.20;;
14165;SDS011;7162;52.422;13.754;2023-04-24T07:52:45;1.37;;;1.20;;
14165;SDS011;7162;52.422;13.754;2023-04-24T07:55:12;1.23;;;1.03;;
14165;SDS011;7162;52.422;13.754;2023-04-24T07:57:40;1.97;;;1.67;;
14165;SDS011;7162;52.422;13.754;2023-04-24T08:00:08;3.87;;;1.17;;
14165;SDS011;7162;52.422;13.754;2023-04-24T08:02:35;2.73;;;1.27;;
14165;SDS011;7162;52.422;13.754;2023-04-24T08:05:02;2.03;;;1.00;;
14165;SDS011;7162;52.422;13.754;2023-04-24T08:07:29;8.53;;;1.20;;
14165;SDS011;7162;52.422;13.754;2023-04-24T08:09:56;1.00;;;0.93;;
14165;SDS011;7162;52.422;13.754;2023-04-24T08:12:24;1.83;;;1.10;;
14165;SDS011;7162;52.422;13.754;2023-04-24T08:14:52;1.40;;;1.30;;
14165;SDS011;7162;52.422;13.754;2023-04-24T08:17:19;1.10;;;0.90;;
14165;SDS011;7162;52.422;13.754;2023-04-24T08:19:46;1.00;;;0.90;;
14165;SDS011;7162;52.422;13.754;2023-04-24T08:22:13;3.00;;;1.03;;
14165;SDS011;7162;52.422;13.754;2023-04-24T08:24:40;1.20;;;0.90;;
14165;SDS011;7162;52.422;13.754;2023-04-24T08:27:08;1.00;;;0.83;;
14165;SDS011;7162;52.422;13.754;2023-04-24T08:29:35;0.97;;;0.87;;
14165;SDS011;7162;52.422;13.754;2023-04-24T08:32:04;1.63;;;1.00;;
14165;SDS011;7162;52.422;13.754;2023-04-24T08:34:31;1.07;;;0.90;;
14165;SDS011;7162;52.422;13.754;2023-04-24T08:36:58;1.43;;;1.10;;
14165;SDS011;7162;52.422;13.754;2023-04-24T08:39:25;3.83;;;0.90;;
14165;SDS011;7162;52.422;13.754;2023-04-24T08:41:52;3.10;;;0.80;;
14165;SDS011;7162;52.422;13.754;2023-04-24T08:44:19;1.10;;;1.00;;
14165;SDS011;7162;52.422;13.754;2023-04-24T08:46:47;3.00;;;0.80;;
14165;SDS011;7162;52.422;13.754;2023-04-24T08:49:16;1.07;;;0.87;;
14165;SDS011;7162;52.422;13.754;2023-04-24T08:51:43;0.97;;;0.80;;
14165;SDS011;7162;52.422;13.754;2023-04-24T08:54:11;4.90;;;0.90;;
14165;SDS011;7162;52.422;13.754;2023-04-24T08:56:39;1.10;;;0.80;;
14165;SDS011;7162;52.422;13.754;2023-04-24T08:59:07;0.80;;;0.70;;
14165;SDS011;7162;52.422;13.754;2023-04-24T09:01:34;2.07;;;0.70;;
14165;SDS011;7162;52.422;13.754;2023-04-24T09:04:01;0.70;;;0.67;;
14165;SDS011;7162;52.422;13.754;2023-04-24T09:06:31;1.30;;;0.90;;
14165;SDS011;7162;52.422;13.754;2023-04-24T09:08:59;0.87;;;0.77;;
14165;SDS011;7162;52.422;13.754;2023-04-24T09:11:26;2.17;;;0.90;;
14165;SDS011;7162;52.422;13.754;2023-04-24T09:13:54;1.10;;;0.90;;
14165;SDS011;7162;52.422;13.754;2023-04-24T09:16:21;1.27;;;0.90;;
14165;SDS011;7162;52.422;13.754;2023-04-24T09:18:49;1.10;;;0.80;;
14165;SDS011;7162;52.422;13.754;2023-04-24T09:21:16;6.20;;;1.57;;
14165;SDS011;7162;52.422;13.754;2023-04-24T09:23:44;1.00;;;0.90;;
14165;SDS011;7162;52.422;13.754;2023-04-24T09:26:11;1.73;;;1.10;;
14165;SDS011;7162;52.422;13.754;2023-04-24T09:28:39;1.50;;;1.10;;
14165;SDS011;7162;52.422;13.754;2023-04-24T09:31:07;2.90;;;0.90;;
14165;SDS011;7162;52.422;13.754;2023-04-24T09:33:34;1.80;;;1.20;;
14165;SDS011;7162;52.422;13.754;2023-04-24T09:36:01;3.67;;;0.80;;
14165;SDS011;7162;52.422;13.754;2023-04-24T09:38:32;1.00;;;0.90;;
14165;SDS011;7162;52.422;13.754;2023-04-24T09:41:01;1.00;;;0.80;;
14165;SDS011;7162;52.422;13.754;2023-04-24T09:43:29;1.37;;;1.00;;
14165;SDS011;7162;52.422;13.754;2023-04-24T09:45:56;1.00;;;0.90;;
14165;SDS011;7162;52.422;13.754;2023-04-24T09:48:29;1.73;;;0.90;;
14165;SDS011;7162;52.422;13.754;2023-04-24T09:50:57;1.40;;;1.30;;
14165;SDS011;7162;52.422;13.754;2023-04-24T09:53:24;0.93;;;0.83;;
14165;SDS011;7162;52.422;13.754;2023-04-24T09:55:51;0.90;;;0.80;;
14165;SDS011;7162;52.422;13.754;2023-04-24T09:58:19;2.70;;;1.10;;
14165;SDS011;7162;52.422;13.754;2023-04-24T10:00:53;1.47;;;1.03;;
14165;SDS011;7162;52.422;13.754;2023-04-24T10:03:20;1.50;;;1.40;;
14165;SDS011;7162;52.422;13.754;2023-04-24T10:05:47;1.10;;;1.00;;
14165;SDS011;7162;52.422;13.754;2023-04-24T10:08:14;1.00;;;0.90;;
14165;SDS011;7162;52.422;13.754;2023-04-24T10:10:42;1.20;;;1.10;;
14165;SDS011;7162;52.422;13.754;2023-04-24T10:13:09;1.17;;;0.90;;
14165;SDS011;7162;52.422;13.754;2023-04-24T10:15:38;1.20;;;1.10;;
14165;SDS011;7162;52.422;13.754;2023-04-24T10:18:06;1.20;;;1.10;;
14165;SDS011;7162;52.422;13.754;2023-04-24T10:20:34;1.30;;;1.00;;
14165;SDS011;7162;52.422;13.754;2023-04-24T10:23:01;4.10;;;1.73;;
14165;SDS011;7162;52.422;13.754;2023-04-24T10:25:29;3.53;;;1.07;;
14165;SDS011;7162;52.422;13.754;2023-04-24T10:27:57;1.30;;;1.20;;
14165;SDS011;7162;52.422;13.754;2023-04-24T10:30:24;4.50;;;1.10;;
14165;SDS011;7162;52.422;13.754;2023-04-24T10:32:53;3.13;;;1.03;;
14165;SDS011;7162;52.422;13.754;2023-04-24T10:35:20;2.20;;;1.10;;
14165;SDS011;7162;52.422;13.754;2023-04-24T10:37:51;3.77;;;1.10;;
14165;SDS011;7162;52.422;13.754;2023-04-24T10:40:24;3.43;;;1.07;;
14165;SDS011;7162;52.422;13.754;2023-04-24T10:42:52;1.90;;;1.37;;
14165;SDS011;7162;52.422;13.754;2023-04-24T10:45:20;2.07;;;1.23;;
14165;SDS011;7162;52.422;13.754;2023-04-24T10:47:51;3.47;;;1.50;;
14165;SDS011;7162;52.422;13.754;2023-04-24T10:50:19;3.00;;;1.20;;
14165;SDS011;7162;52.422;13.754;2023-04-24T10:52:49;1.73;;;1.20;;
14165;SDS011;7162;52.422;13.754;2023-04-24T10:55:29;1.10;;;1.00;;
14165;SDS011;7162;52.422;13.754;2023-04-24T10:58:05;1.50;;;1.40;;
14165;SDS011;7162;52.422;13.754;2023-04-24T11:00:32;3.23;;;1.23;;
14165;SDS011;7162;52.422;13.754;2023-04-24T11:03:03;1.57;;;1.20;;
14165;SDS011;7162;52.422;13.754;2023-04-24T11:08:14;2.60;;;1.43;;
14165;SDS011;7162;52.422;13.754;2023-04-24T11:10:45;3.10;;;1.27;;
14165;SDS011;7162;52.422;13.754;2023-04-24T11:13:14;4.30;;;1.23;;
14165;SDS011;7162;52.422;13.754;2023-04-24T11:15:41;3.40;;;1.27;;
14165;SDS011;7162;52.422;13.754;2023-04-24T11:18:12;3.00;;;1.10;;
14165;SDS011;7162;52.422;13.754;2023-04-24T11:20:43;4.03;;;1.17;;
14165;SDS011;7162;52.422;13.754;2023-04-24T11:23:11;1.17;;;1.07;;
14165;SDS011;7162;52.422;13.754;2023-04-24T11:25:40;1.43;;;0.90;;
14165;SDS011;7162;52.422;13.754;2023-04-24T11:28:08;1.20;;;1.00;;
14165;SDS011;7162;52.422;13.754;2023-04-24T11:30:42;2.40;;;1.10;;
14165;SDS011;7162;52.422;13.754;2023-04-24T11:33:09;15.13;;;8.53;;
14165;SDS011;7162;52.422;13.754;2023-04-24T11:35:39;13.40;;;6.30;;
14165;SDS011;7162;52.422;13.754;2023-04-24T11:38:06;10.23;;;5.13;;
14165;SDS011;7162;52.422;13.754;2023-04-24T11:40:33;37.70;;;19.20;;
14165;SDS011;7162;52.422;13.754;2023-04-24T11:43:02;44.40;;;22.43;;
14165;SDS011;7162;52.422;13.754;2023-04-24T11:45:30;10.17;;;5.80;;
14165;SDS011;7162;52.422;13.754;2023-04-24T11:47:58;7.40;;;3.43;;
14165;SDS011;7162;52.422;13.754;2023-04-24T11:50:25;8.50;;;3.40;;
14165;SDS011;7162;52.422;13.754;2023-04-24T11:52:54;20.97;;;11.10;;
14165;SDS011;7162;52.422;13.754;2023-04-24T11:55:25;20.23;;;10.50;;
14165;SDS011;7162;52.422;13.754;2023-04-24T11:57:53;33.33;;;16.93;;
14165;SDS011;7162;52.422;13.754;2023-04-24T12:00:23;6.37;;;3.80;;
14165;SDS011;7162;52.422;13.754;2023-04-24T12:02:50;3.00;;;2.13;;
14165;SDS011;7162;52.422;13.754;2023-04-24T12:05:21;8.47;;;3.60;;
14165;SDS011;7162;52.422;13.754;2023-04-24T12:07:48;10.23;;;2.20;;
14165;SDS011;7162;52.422;13.754;2023-04-24T12:10:19;5.90;;;2.27;;
14165;SDS011;7162;52.422;13.754;2023-04-24T12:12:46;8.13;;;3.80;;
14165;SDS011;7162;52.422;13.754;2023-04-24T12:15:15;10.43;;;6.17;;
14165;SDS011;7162;52.422;13.754;2023-04-24T12:17:44;26.30;;;5.80;;
14165;SDS011;7162;52.422;13.754;2023-04-24T12:20:12;20.63;;;10.77;;
14165;SDS011;7162;52.422;13.754;2023-04-24T12:22:43;12.20;;;4.60;;
14165;SDS011;7162;52.422;13.754;2023-04-24T12:25:11;7.03;;;2.83;;
14165;SDS011;7162;52.422;13.754;2023-04-24T12:27:38;3.50;;;1.50;;
14165;SDS011;7162;52.422;13.754;2023-04-24T12:30:05;3.13;;;1.97;;
14165;SDS011;7162;52.422;13.754;2023-04-24T12:32:40;3.37;;;1.93;;
14165;SDS011;7162;52.422;13.754;2023-04-24T12:35:08;1.63;;;1.53;;
14165;SDS011;7162;52.422;13.754;2023-04-24T12:37:36;4.33;;;1.57;;
14165;SDS011;7162;52.422;13.754;2023-04-24T12:40:05;3.40;;;1.37;;
14165;SDS011;7162;52.422;13.754;2023-04-24T12:42:32;2.07;;;1.30;;
14165;SDS011;7162;52.422;13.754;2023-04-24T12:45:00;2.27;;;1.13;;
14165;SDS011;7162;52.422;13.754;2023-04-24T12:47:28;1.17;;;1.03;;
14165;SDS011;7162;52.422;13.754;2023-04-24T12:49:55;2.90;;;1.20;;
14165;SDS011;7162;52.422;13.754;2023-04-24T12:52:24;4.97;;;1.30;;
14165;SDS011;7162;52.422;13.754;2023-04-24T12:54:52;1.87;;;1.10;;
14165;SDS011;7162;52.422;13.754;2023-04-24T12:57:19;17.83;;;9.13;;
14165;SDS011;7162;52.422;13.754;2023-04-24T12:59:46;30.53;;;9.80;;
14165;SDS011;7162;52.422;13.754;2023-04-24T13:02:13;3.23;;;2.00;;
14165;SDS011;7162;52.422;13.754;2023-04-24T13:04:43;2.30;;;1.70;;
14165;SDS011;7162;52.422;13.754;2023-04-24T13:07:10;10.97;;;6.73;;
14165;SDS011;7162;52.422;13.754;2023-04-24T13:09:39;8.40;;;2.90;;
14165;SDS011;7162;52.422;13.754;2023-04-24T13:12:06;1.00;;;0.90;;
14165;SDS011;7162;52.422;13.754;2023-04-24T13:14:33;3.00;;;2.37;;
14165;SDS011;7162;52.422;13.754;2023-04-24T13:17:00;4.20;;;2.90;;
14165;SDS011;7162;52.422;13.754;2023-04-24T13:19:27;2.00;;;1.67;;
14165;SDS011;7162;52.422;13.754;2023-04-24T13:21:55;3.57;;;2.73;;
14165;SDS011;7162;52.422;13.754;2023-04-24T13:24:24;2.07;;;1.30;;
14165;SDS011;7162;52.422;13.754;2023-04-24T13:26:52;1.83;;;1.03;;
14165;SDS011;7162;52.422;13.754;2023-04-24T13:29:19;1.57;;;1.47;;
14165;SDS011;7162;52.422;13.754;2023-04-24T13:31:47;12.43;;;1.80;;
14165;SDS011;7162;52.422;13.754;2023-04-24T13:34:14;4.40;;;1.20;;
14165;SDS011;7162;52.422;13.754;2023-04-24T13:36:41;2.13;;;1.10;;
14165;SDS011;7162;52.422;13.754;2023-04-24T13:39:09;8.23;;;1.10;;
14165;SDS011;7162;52.422;13.754;2023-04-24T13:41:36;1.30;;;1.20;;
14165;SDS011;7162;52.422;13.754;2023-04-24T13:44:05;2.00;;;1.27;;
14165;SDS011;7162;52.422;13.754;2023-04-24T13:46:32;2.07;;;1.00;;
14165;SDS011;7162;52.422;13.754;2023-04-24T13:49:02;1.60;;;1.33;;
14165;SDS011;7162;52.422;13.754;2023-04-24T13:51:30;6.40;;;1.70;;
14165;SDS011;7162;52.422;13.754;2023-04-24T13:53:57;1.80;;;1.10;;
14165;SDS011;7162;52.422;13.754;2023-04-24T13:56:24;3.37;;;1.30;;
14165;SDS011;7162;52.422;13.754;2023-04-24T13:58:52;2.13;;;1.30;;
14165;SDS011;7162;52.422;13.754;2023-04-24T14:01:21;1.83;;;0.83;;
14165;SDS011;7162;52.422;13.754;2023-04-24T14:03:49;1.93;;;1.10;;
14165;SDS011;7162;52.422;13.754;2023-04-24T14:06:17;3.97;;;1.00;;
14165;SDS011;7162;52.422;13.754;2023-04-24T14:08:44;1.07;;;0.90;;
14165;SDS011;7162;52.422;13.754;2023-04-24T14:11:11;1.20;;;1.10;;
14165;SDS011;7162;52.422;13.754;2023-04-24T14:13:38;2.43;;;1.07;;
14165;SDS011;7162;52.422;13.754;2023-04-24T14:16:06;1.20;;;1.10;;
14165;SDS011;7162;52.422;13.754;2023-04-24T14:18:34;2.33;;;1.10;;
14165;SDS011;7162;52.422;13.754;2023-04-24T14:21:02;1.00;;;0.83;;
14165;SDS011;7162;52.422;13.754;2023-04-24T14:23:29;6.60;;;1.20;;
14165;SDS011;7162;52.422;13.754;2023-04-24T14:25:56;3.40;;;1.30;;
14165;SDS011;7162;52.422;13.754;2023-04-24T14:28:23;3.67;;;0.80;;
14165;SDS011;7162;52.422;13.754;2023-04-24T14:30:51;1.10;;;1.00;;
14165;SDS011;7162;52.422;13.754;2023-04-24T14:33:18;2.33;;;1.37;;
14165;SDS011;7162;52.422;13.754;2023-04-24T14:35:46;11.53;;;1.00;;
14165;SDS011;7162;52.422;13.754;2023-04-24T14:38:14;1.00;;;0.87;;
14165;SDS011;7162;52.422;13.754;2023-04-24T14:40:41;2.37;;;1.07;;
14165;SDS011;7162;52.422;13.754;2023-04-24T14:43:08;1.63;;;1.20;;
14165;SDS011;7162;52.422;13.754;2023-04-24T14:45:36;4.90;;;1.30;;
14165;SDS011;7162;52.422;13.754;2023-04-24T14:48:03;3.00;;;2.00;;
14165;SDS011;7162;52.422;13.754;2023-04-24T14:50:30;2.00;;;1.03;;